sensor_id;sensor_type;location;lat;lon;timestamp;temperature;humidity
3262;DHT22;1643;47.746;9.000;2023-03-12T00:01:58;5.80;99.90
3262;DHT22;1643;47.746;9.000;2023-03-12T00:04:24;5.80;99.90
3262;DHT22;1643;47.746;9.000;2023-03-12T00:06:50;5.80;99.90
3262;DHT22;1643;47.746;9.000;2023-03-12T00:09:16;5.80;99.90
3262;DHT22;1643;47.746;9.000;2023-03-12T00:11:41;5.80;99.90
3262;DHT22;1643;47.746;9.000;2023-03-12T00:14:07;5.80;99.90
3262;DHT22;1643;47.746;9.000;2023-03-12T00:16:33;5.80;99.90
3262;DHT22;1643;47.746;9.000;2023-03-12T00:18:58;5.80;99.90
3262;DHT22;1643;47.746;9.000;2023-03-12T00:21:24;5.80;99.90
3262;DHT22;1643;47.746;9.000;2023-03-12T00:23:50;5.90;99.90
3262;DHT22;1643;47.746;9.000;2023-03-12T00:26:17;5.90;99.90
3262;DHT22;1643;47.746;9.000;2023-03-12T00:28:43;5.90;99.90
3262;DHT22;1643;47.746;9.000;2023-03-12T00:31:29;5.90;99.90
3262;DHT22;1643;47.746;9.000;2023-03-12T00:33:57;5.90;99.90
3262;DHT22;1643;47.746;9.000;2023-03-12T00:36:25;5.90;99.90
3262;DHT22;1643;47.746;9.000;2023-03-12T00:38:52;5.90;99.90
3262;DHT22;1643;47.746;9.000;2023-03-12T00:41:18;5.90;99.90
3262;DHT22;1643;47.746;9.000;2023-03-12T00:43:48;5.90;99.90
3262;DHT22;1643;47.746;9.000;2023-03-12T00:46:14;5.90;99.90
3262;DHT22;1643;47.746;9.000;2023-03-12T00:48:40;5.90;99.90
3262;DHT22;1643;47.746;9.000;2023-03-12T00:51:06;5.90;99.90
3262;DHT22;1643;47.746;9.000;2023-03-12T00:53:32;5.90;99.90
3262;DHT22;1643;47.746;9.000;2023-03-12T00:55:57;5.80;99.90
3262;DHT22;1643;47.746;9.000;2023-03-12T00:58:23;5.80;99.90
3262;DHT22;1643;47.746;9.000;2023-03-12T01:00:49;5.80;99.90
3262;DHT22;1643;47.746;9.000;2023-03-12T01:03:15;5.90;99.90
3262;DHT22;1643;47.746;9.000;2023-03-12T01:05:41;5.90;99.90
3262;DHT22;1643;47.746;9.000;2023-03-12T01:08:08;5.90;99.90
3262;DHT22;1643;47.746;9.000;2023-03-12T01:10:35;5.80;99.90
3262;DHT22;1643;47.746;9.000;2023-03-12T01:13:00;5.80;99.90
3262;DHT22;1643;47.746;9.000;2023-03-12T01:15:27;5.90;99.90
3262;DHT22;1643;47.746;9.000;2023-03-12T01:17:53;5.80;99.90
3262;DHT22;1643;47.746;9.000;2023-03-12T01:20:19;5.80;99.90
3262;DHT22;1643;47.746;9.000;2023-03-12T01:22:45;5.90;99.90
3262;DHT22;1643;47.746;9.000;2023-03-12T01:25:10;5.90;99.90
3262;DHT22;1643;47.746;9.000;2023-03-12T01:27:36;5.90;99.90
3262;DHT22;1643;47.746;9.000;2023-03-12T01:30:03;5.90;99.90
3262;DHT22;1643;47.746;9.000;2023-03-12T01:32:29;5.90;99.90
3262;DHT22;1643;47.746;9.000;2023-03-12T01:34:56;5.90;99.90
3262;DHT22;1643;47.746;9.000;2023-03-12T01:37:22;5.90;99.90
3262;DHT22;1643;47.746;9.000;2023-03-12T01:39:47;5.90;99.90
3262;DHT22;1643;47.746;9.000;2023-03-12T01:42:13;6.00;99.90
3262;DHT22;1643;47.746;9.000;2023-03-12T01:44:56;5.90;99.90
3262;DHT22;1643;47.746;9.000;2023-03-12T01:47:22;6.00;99.90
3262;DHT22;1643;47.746;9.000;2023-03-12T01:49:51;6.00;99.90
3262;DHT22;1643;47.746;9.000;2023-03-12T01:52:24;5.90;99.90
3262;DHT22;1643;47.746;9.000;2023-03-12T01:57:40;6.00;99.90
3262;DHT22;1643;47.746;9.000;2023-03-12T02:00:12;5.90;99.90
3262;DHT22;1643;47.746;9.000;2023-03-12T02:02:42;6.00;99.90
3262;DHT22;1643;47.746;9.000;2023-03-12T02:07:58;6.00;99.90
3262;DHT22;1643;47.746;9.000;2023-03-12T02:10:24;6.00;99.90
3262;DHT22;1643;47.746;9.000;2023-03-12T02:12:51;6.00;99.90
3262;DHT22;1643;47.746;9.000;2023-03-12T02:15:16;6.00;99.90
3262;DHT22;1643;47.746;9.000;2023-03-12T02:17:42;6.00;99.90
3262;DHT22;1643;47.746;9.000;2023-03-12T02:22:43;5.90;99.90
3262;DHT22;1643;47.746;9.000;2023-03-12T02:25:43;6.00;99.90
3262;DHT22;1643;47.746;9.000;2023-03-12T02:28:12;6.00;99.90
3262;DHT22;1643;47.746;9.000;2023-03-12T02:30:45;6.10;99.90
3262;DHT22;1643;47.746;9.000;2023-03-12T02:33:11;6.00;99.90
3262;DHT22;1643;47.746;9.000;2023-03-12T02:35:37;6.00;99.90
3262;DHT22;1643;47.746;9.000;2023-03-12T02:38:28;5.90;99.90
3262;DHT22;1643;47.746;9.000;2023-03-12T02:40:58;6.00;99.90
3262;DHT22;1643;47.746;9.000;2023-03-12T02:43:24;6.00;99.90
3262;DHT22;1643;47.746;9.000;2023-03-12T02:45:50;6.00;99.90
3262;DHT22;1643;47.746;9.000;2023-03-12T02:48:16;6.00;99.90
3262;DHT22;1643;47.746;9.000;2023-03-12T02:50:41;6.00;99.90
3262;DHT22;1643;47.746;9.000;2023-03-12T02:53:07;6.00;99.90
3262;DHT22;1643;47.746;9.000;2023-03-12T02:55:33;6.10;99.90
3262;DHT22;1643;47.746;9.000;2023-03-12T02:57:58;6.10;99.90
3262;DHT22;1643;47.746;9.000;2023-03-12T03:00:24;6.10;99.90
3262;DHT22;1643;47.746;9.000;2023-03-12T03:02:49;6.10;99.90
3262;DHT22;1643;47.746;9.000;2023-03-12T03:05:15;6.20;99.90
3262;DHT22;1643;47.746;9.000;2023-03-12T03:07:41;6.20;99.90
3262;DHT22;1643;47.746;9.000;2023-03-12T03:10:08;6.20;99.90
3262;DHT22;1643;47.746;9.000;2023-03-12T03:12:35;6.20;99.90
3262;DHT22;1643;47.746;9.000;2023-03-12T03:15:02;6.20;99.90
3262;DHT22;1643;47.746;9.000;2023-03-12T03:17:28;6.20;99.90
3262;DHT22;1643;47.746;9.000;2023-03-12T03:19:54;6.30;99.90
3262;DHT22;1643;47.746;9.000;2023-03-12T03:22:21;6.20;99.90
3262;DHT22;1643;47.746;9.000;2023-03-12T03:24:46;6.20;99.90
3262;DHT22;1643;47.746;9.000;2023-03-12T03:27:12;6.20;99.90
3262;DHT22;1643;47.746;9.000;2023-03-12T03:29:38;6.20;99.90
3262;DHT22;1643;47.746;9.000;2023-03-12T03:32:04;6.20;99.90
3262;DHT22;1643;47.746;9.000;2023-03-12T03:34:29;6.30;99.90
3262;DHT22;1643;47.746;9.000;2023-03-12T03:36:55;6.20;99.90
3262;DHT22;1643;47.746;9.000;2023-03-12T03:39:21;6.20;99.90
3262;DHT22;1643;47.746;9.000;2023-03-12T03:41:46;6.30;99.90
3262;DHT22;1643;47.746;9.000;2023-03-12T03:44:12;6.20;99.90
3262;DHT22;1643;47.746;9.000;2023-03-12T03:46:39;6.20;99.90
3262;DHT22;1643;47.746;9.000;2023-03-12T03:49:05;6.30;99.90
3262;DHT22;1643;47.746;9.000;2023-03-12T03:51:30;6.30;99.90
3262;DHT22;1643;47.746;9.000;2023-03-12T03:53:58;6.30;99.90
3262;DHT22;1643;47.746;9.000;2023-03-12T03:56:25;6.30;99.90
3262;DHT22;1643;47.746;9.000;2023-03-12T03:58:50;6.30;99.90
3262;DHT22;1643;47.746;9.000;2023-03-12T04:01:16;6.30;99.90
3262;DHT22;1643;47.746;9.000;2023-03-12T04:03:42;6.30;99.90
3262;DHT22;1643;47.746;9.000;2023-03-12T04:06:08;6.20;99.90
3262;DHT22;1643;47.746;9.000;2023-03-12T04:08:35;6.30;99.90
3262;DHT22;1643;47.746;9.000;2023-03-12T04:11:10;6.30;99.90
3262;DHT22;1643;47.746;9.000;2023-03-12T04:13:36;6.30;99.90
3262;DHT22;1643;47.746;9.000;2023-03-12T04:16:02;6.30;99.90
3262;DHT22;1643;47.746;9.000;2023-03-12T04:18:28;6.30;99.90
3262;DHT22;1643;47.746;9.000;2023-03-12T04:20:53;6.40;99.90
3262;DHT22;1643;47.746;9.000;2023-03-12T04:23:19;6.40;99.90
3262;DHT22;1643;47.746;9.000;2023-03-12T04:25:44;6.40;99.90
3262;DHT22;1643;47.746;9.000;2023-03-12T04:28:10;6.40;99.90
3262;DHT22;1643;47.746;9.000;2023-03-12T04:30:36;6.30;99.90
3262;DHT22;1643;47.746;9.000;2023-03-12T04:33:06;6.30;99.90
3262;DHT22;1643;47.746;9.000;2023-03-12T04:35:31;6.30;99.90
3262;DHT22;1643;47.746;9.000;2023-03-12T04:37:59;6.30;99.90
3262;DHT22;1643;47.746;9.000;2023-03-12T04:40:25;6.30;99.90
3262;DHT22;1643;47.746;9.000;2023-03-12T04:42:51;6.30;99.90
3262;DHT22;1643;47.746;9.000;2023-03-12T04:45:16;6.40;99.90
3262;DHT22;1643;47.746;9.000;2023-03-12T04:47:42;6.40;99.90
3262;DHT22;1643;47.746;9.000;2023-03-12T04:50:09;6.40;99.90
3262;DHT22;1643;47.746;9.000;2023-03-12T04:52:35;6.40;99.90
3262;DHT22;1643;47.746;9.000;2023-03-12T04:55:00;6.40;99.90
3262;DHT22;1643;47.746;9.000;2023-03-12T04:57:26;6.40;99.90
3262;DHT22;1643;47.746;9.000;2023-03-12T04:59:52;6.40;99.90
3262;DHT22;1643;47.746;9.000;2023-03-12T05:02:17;6.40;99.90
3262;DHT22;1643;47.746;9.000;2023-03-12T05:04:43;6.40;99.90
3262;DHT22;1643;47.746;9.000;2023-03-12T05:07:09;6.40;99.90
3262;DHT22;1643;47.746;9.000;2023-03-12T05:09:34;6.40;99.90
3262;DHT22;1643;47.746;9.000;2023-03-12T05:12:00;6.50;99.90
3262;DHT22;1643;47.746;9.000;2023-03-12T05:14:26;6.50;99.90
3262;DHT22;1643;47.746;9.000;2023-03-12T05:16:51;6.50;99.90
3262;DHT22;1643;47.746;9.000;2023-03-12T05:19:17;6.50;99.90
3262;DHT22;1643;47.746;9.000;2023-03-12T05:21:43;6.50;99.90
3262;DHT22;1643;47.746;9.000;2023-03-12T05:24:09;6.50;99.90
3262;DHT22;1643;47.746;9.000;2023-03-12T05:26:36;6.50;99.90
3262;DHT22;1643;47.746;9.000;2023-03-12T05:29:02;6.50;99.90
3262;DHT22;1643;47.746;9.000;2023-03-12T05:31:29;6.50;99.90
3262;DHT22;1643;47.746;9.000;2023-03-12T05:33:57;6.50;99.90
3262;DHT22;1643;47.746;9.000;2023-03-12T05:36:23;6.50;99.90
3262;DHT22;1643;47.746;9.000;2023-03-12T05:38:49;6.50;99.90
3262;DHT22;1643;47.746;9.000;2023-03-12T05:41:20;6.40;99.90
3262;DHT22;1643;47.746;9.000;2023-03-12T05:43:46;6.40;99.90
3262;DHT22;1643;47.746;9.000;2023-03-12T05:46:12;6.40;99.90
3262;DHT22;1643;47.746;9.000;2023-03-12T05:48:38;6.40;99.90
3262;DHT22;1643;47.746;9.000;2023-03-12T05:51:04;6.40;99.90
3262;DHT22;1643;47.746;9.000;2023-03-12T05:53:29;6.40;99.90
3262;DHT22;1643;47.746;9.000;2023-03-12T05:56:05;6.40;99.90
3262;DHT22;1643;47.746;9.000;2023-03-12T05:58:31;6.40;99.90
3262;DHT22;1643;47.746;9.000;2023-03-12T06:00:57;6.40;99.90
3262;DHT22;1643;47.746;9.000;2023-03-12T06:03:23;6.40;99.90
3262;DHT22;1643;47.746;9.000;2023-03-12T06:05:49;6.40;99.90
3262;DHT22;1643;47.746;9.000;2023-03-12T06:08:15;6.40;99.90
3262;DHT22;1643;47.746;9.000;2023-03-12T06:10:41;6.40;99.90
3262;DHT22;1643;47.746;9.000;2023-03-12T06:13:06;6.40;99.90
3262;DHT22;1643;47.746;9.000;2023-03-12T06:15:33;6.40;99.90
3262;DHT22;1643;47.746;9.000;2023-03-12T06:17:58;6.40;99.90
3262;DHT22;1643;47.746;9.000;2023-03-12T06:20:24;6.40;99.90
3262;DHT22;1643;47.746;9.000;2023-03-12T06:22:50;6.40;99.90
3262;DHT22;1643;47.746;9.000;2023-03-12T06:25:15;6.40;99.90
3262;DHT22;1643;47.746;9.000;2023-03-12T06:27:41;6.40;99.90
3262;DHT22;1643;47.746;9.000;2023-03-12T06:30:07;6.40;99.90
3262;DHT22;1643;47.746;9.000;2023-03-12T06:32:33;6.40;99.90
3262;DHT22;1643;47.746;9.000;2023-03-12T06:35:00;6.40;99.90
3262;DHT22;1643;47.746;9.000;2023-03-12T06:37:27;6.40;99.90
3262;DHT22;1643;47.746;9.000;2023-03-12T06:39:52;6.50;99.90
3262;DHT22;1643;47.746;9.000;2023-03-12T06:42:18;6.50;99.90
3262;DHT22;1643;47.746;9.000;2023-03-12T06:44:45;6.50;99.90
3262;DHT22;1643;47.746;9.000;2023-03-12T06:47:10;6.50;99.90
3262;DHT22;1643;47.746;9.000;2023-03-12T06:49:36;6.50;99.90
3262;DHT22;1643;47.746;9.000;2023-03-12T06:52:03;6.60;99.90
3262;DHT22;1643;47.746;9.000;2023-03-12T06:54:29;6.60;99.90
3262;DHT22;1643;47.746;9.000;2023-03-12T06:56:54;6.60;99.90
3262;DHT22;1643;47.746;9.000;2023-03-12T06:59:21;6.60;99.90
3262;DHT22;1643;47.746;9.000;2023-03-12T07:01:47;6.70;99.90
3262;DHT22;1643;47.746;9.000;2023-03-12T07:04:13;6.70;99.90
3262;DHT22;1643;47.746;9.000;2023-03-12T07:06:39;6.70;99.90
3262;DHT22;1643;47.746;9.000;2023-03-12T07:09:05;6.70;99.90
3262;DHT22;1643;47.746;9.000;2023-03-12T07:11:31;6.70;99.90
3262;DHT22;1643;47.746;9.000;2023-03-12T07:13:57;6.70;99.90
3262;DHT22;1643;47.746;9.000;2023-03-12T07:16:22;6.70;99.90
3262;DHT22;1643;47.746;9.000;2023-03-12T07:18:48;6.70;99.90
3262;DHT22;1643;47.746;9.000;2023-03-12T07:21:14;6.80;99.90
3262;DHT22;1643;47.746;9.000;2023-03-12T07:23:48;6.80;99.90
3262;DHT22;1643;47.746;9.000;2023-03-12T07:26:14;6.80;99.90
3262;DHT22;1643;47.746;9.000;2023-03-12T07:28:40;7.30;99.90
3262;DHT22;1643;47.746;9.000;2023-03-12T07:31:06;6.90;99.90
3262;DHT22;1643;47.746;9.000;2023-03-12T07:33:32;6.80;99.90
3262;DHT22;1643;47.746;9.000;2023-03-12T07:35:58;6.90;99.90
3262;DHT22;1643;47.746;9.000;2023-03-12T07:38:24;6.90;99.90
3262;DHT22;1643;47.746;9.000;2023-03-12T07:40:53;6.90;99.90
3262;DHT22;1643;47.746;9.000;2023-03-12T07:43:19;6.90;99.90
3262;DHT22;1643;47.746;9.000;2023-03-12T07:45:45;7.00;99.90
3262;DHT22;1643;47.746;9.000;2023-03-12T07:48:10;7.10;99.90
3262;DHT22;1643;47.746;9.000;2023-03-12T07:50:36;7.10;99.90
3262;DHT22;1643;47.746;9.000;2023-03-12T07:53:03;7.20;99.90
3262;DHT22;1643;47.746;9.000;2023-03-12T07:55:30;7.20;99.90
3262;DHT22;1643;47.746;9.000;2023-03-12T07:57:56;7.20;99.90
3262;DHT22;1643;47.746;9.000;2023-03-12T08:00:24;7.20;99.90
3262;DHT22;1643;47.746;9.000;2023-03-12T08:02:50;7.30;99.90
3262;DHT22;1643;47.746;9.000;2023-03-12T08:05:15;7.40;99.90
3262;DHT22;1643;47.746;9.000;2023-03-12T08:07:41;7.40;99.90
3262;DHT22;1643;47.746;9.000;2023-03-12T08:10:08;7.40;99.90
3262;DHT22;1643;47.746;9.000;2023-03-12T08:12:34;7.40;99.90
3262;DHT22;1643;47.746;9.000;2023-03-12T08:15:05;7.40;99.90
3262;DHT22;1643;47.746;9.000;2023-03-12T08:17:31;7.40;99.90
3262;DHT22;1643;47.746;9.000;2023-03-12T08:19:57;7.50;99.90
3262;DHT22;1643;47.746;9.000;2023-03-12T08:22:22;7.50;99.90
3262;DHT22;1643;47.746;9.000;2023-03-12T08:24:48;7.50;99.90
3262;DHT22;1643;47.746;9.000;2023-03-12T08:27:13;7.60;99.90
3262;DHT22;1643;47.746;9.000;2023-03-12T08:29:40;7.60;99.90
3262;DHT22;1643;47.746;9.000;2023-03-12T08:32:06;7.70;99.90
3262;DHT22;1643;47.746;9.000;2023-03-12T08:34:33;7.70;99.90
3262;DHT22;1643;47.746;9.000;2023-03-12T08:36:59;7.80;99.90
3262;DHT22;1643;47.746;9.000;2023-03-12T08:39:24;7.80;99.90
3262;DHT22;1643;47.746;9.000;2023-03-12T08:41:50;7.90;99.90
3262;DHT22;1643;47.746;9.000;2023-03-12T08:44:23;7.90;99.90
3262;DHT22;1643;47.746;9.000;2023-03-12T08:46:49;7.90;99.90
3262;DHT22;1643;47.746;9.000;2023-03-12T08:49:15;7.90;99.90
3262;DHT22;1643;47.746;9.000;2023-03-12T08:51:41;7.90;99.90
3262;DHT22;1643;47.746;9.000;2023-03-12T08:54:06;7.80;99.90
3262;DHT22;1643;47.746;9.000;2023-03-12T08:56:33;7.90;99.90
3262;DHT22;1643;47.746;9.000;2023-03-12T08:59:01;7.90;99.90
3262;DHT22;1643;47.746;9.000;2023-03-12T09:01:27;7.90;99.90
3262;DHT22;1643;47.746;9.000;2023-03-12T09:03:52;7.90;99.90
3262;DHT22;1643;47.746;9.000;2023-03-12T09:06:20;8.00;99.90
3262;DHT22;1643;47.746;9.000;2023-03-12T09:08:46;8.00;99.90
3262;DHT22;1643;47.746;9.000;2023-03-12T09:11:13;8.00;99.90
3262;DHT22;1643;47.746;9.000;2023-03-12T09:13:40;8.10;99.90
3262;DHT22;1643;47.746;9.000;2023-03-12T09:16:06;8.10;99.90
3262;DHT22;1643;47.746;9.000;2023-03-12T09:18:33;8.10;99.90
3262;DHT22;1643;47.746;9.000;2023-03-12T09:20:59;8.20;99.90
3262;DHT22;1643;47.746;9.000;2023-03-12T09:23:26;8.30;99.90
3262;DHT22;1643;47.746;9.000;2023-03-12T09:25:51;8.40;99.90
3262;DHT22;1643;47.746;9.000;2023-03-12T09:28:18;8.50;99.90
3262;DHT22;1643;47.746;9.000;2023-03-12T09:30:44;8.50;99.90
3262;DHT22;1643;47.746;9.000;2023-03-12T09:33:09;8.60;99.90
3262;DHT22;1643;47.746;9.000;2023-03-12T09:35:35;8.60;99.90
3262;DHT22;1643;47.746;9.000;2023-03-12T09:38:02;8.60;99.90
3262;DHT22;1643;47.746;9.000;2023-03-12T09:40:33;8.70;99.90
3262;DHT22;1643;47.746;9.000;2023-03-12T09:43:05;8.80;99.90
3262;DHT22;1643;47.746;9.000;2023-03-12T09:45:38;8.80;99.90
3262;DHT22;1643;47.746;9.000;2023-03-12T09:48:06;8.80;99.90
3262;DHT22;1643;47.746;9.000;2023-03-12T09:50:41;8.70;99.90
3262;DHT22;1643;47.746;9.000;2023-03-12T09:55:55;8.80;99.90
3262;DHT22;1643;47.746;9.000;2023-03-12T09:58:24;8.90;99.90
3262;DHT22;1643;47.746;9.000;2023-03-12T10:00:57;9.00;99.90
3262;DHT22;1643;47.746;9.000;2023-03-12T10:06:35;8.90;99.90
3262;DHT22;1643;47.746;9.000;2023-03-12T10:12:09;9.00;99.90
3262;DHT22;1643;47.746;9.000;2023-03-12T10:14:54;9.10;99.90
3262;DHT22;1643;47.746;9.000;2023-03-12T10:23:45;9.20;99.90
3262;DHT22;1643;47.746;9.000;2023-03-12T10:26:18;9.20;99.90
3262;DHT22;1643;47.746;9.000;2023-03-12T10:31:31;9.20;99.90
3262;DHT22;1643;47.746;9.000;2023-03-12T10:34:01;9.20;99.90
3262;DHT22;1643;47.746;9.000;2023-03-12T10:36:37;9.10;99.90
3262;DHT22;1643;47.746;9.000;2023-03-12T10:39:04;9.10;99.90
3262;DHT22;1643;47.746;9.000;2023-03-12T10:41:35;9.10;99.90
3262;DHT22;1643;47.746;9.000;2023-03-12T10:44:06;9.10;99.90
3262;DHT22;1643;47.746;9.000;2023-03-12T10:47:02;9.10;99.90
3262;DHT22;1643;47.746;9.000;2023-03-12T10:49:32;9.10;99.90
3262;DHT22;1643;47.746;9.000;2023-03-12T10:52:13;9.20;99.90
3262;DHT22;1643;47.746;9.000;2023-03-12T10:54:41;9.30;99.90
3262;DHT22;1643;47.746;9.000;2023-03-12T10:57:10;9.30;99.90
3262;DHT22;1643;47.746;9.000;2023-03-12T10:59:38;9.20;99.90
3262;DHT22;1643;47.746;9.000;2023-03-12T11:04:53;9.30;99.90
3262;DHT22;1643;47.746;9.000;2023-03-12T11:07:29;9.20;99.90
3262;DHT22;1643;47.746;9.000;2023-03-12T11:12:31;9.30;99.90
3262;DHT22;1643;47.746;9.000;2023-03-12T11:14:57;9.30;99.90
3262;DHT22;1643;47.746;9.000;2023-03-12T11:17:26;9.30;99.90
3262;DHT22;1643;47.746;9.000;2023-03-12T11:19:52;9.30;99.90
3262;DHT22;1643;47.746;9.000;2023-03-12T11:22:47;9.10;99.90
3262;DHT22;1643;47.746;9.000;2023-03-12T11:25:25;9.10;99.90
3262;DHT22;1643;47.746;9.000;2023-03-12T11:27:56;9.10;99.90
3262;DHT22;1643;47.746;9.000;2023-03-12T11:30:34;9.00;99.90
3262;DHT22;1643;47.746;9.000;2023-03-12T11:33:00;9.10;99.90
3262;DHT22;1643;47.746;9.000;2023-03-12T11:38:42;9.20;99.90
3262;DHT22;1643;47.746;9.000;2023-03-12T11:43:59;9.10;99.90
3262;DHT22;1643;47.746;9.000;2023-03-12T11:49:06;9.00;99.90
3262;DHT22;1643;47.746;9.000;2023-03-12T12:08:06;10.00;99.90
3262;DHT22;1643;47.746;9.000;2023-03-12T12:19:20;11.20;99.90
3262;DHT22;1643;47.746;9.000;2023-03-12T12:24:36;11.10;99.90
3262;DHT22;1643;47.746;9.000;2023-03-12T12:27:25;10.90;99.90
3262;DHT22;1643;47.746;9.000;2023-03-12T12:33:10;11.40;99.90
3262;DHT22;1643;47.746;9.000;2023-03-12T12:35:41;11.50;99.90
3262;DHT22;1643;47.746;9.000;2023-03-12T12:38:15;11.30;99.90
3262;DHT22;1643;47.746;9.000;2023-03-12T12:40:47;11.30;99.90
3262;DHT22;1643;47.746;9.000;2023-03-12T12:43:30;11.10;99.90
3262;DHT22;1643;47.746;9.000;2023-03-12T12:46:02;11.00;99.90
3262;DHT22;1643;47.746;9.000;2023-03-12T12:48:39;10.90;99.90
3262;DHT22;1643;47.746;9.000;2023-03-12T12:51:07;10.80;99.90
3262;DHT22;1643;47.746;9.000;2023-03-12T13:01:30;11.00;99.90
3262;DHT22;1643;47.746;9.000;2023-03-12T13:04:04;10.90;99.90
3262;DHT22;1643;47.746;9.000;2023-03-12T13:07:00;11.00;99.90
3262;DHT22;1643;47.746;9.000;2023-03-12T13:09:38;11.00;99.90
3262;DHT22;1643;47.746;9.000;2023-03-12T13:15:01;10.90;99.90
3262;DHT22;1643;47.746;9.000;2023-03-12T13:17:34;10.80;99.90
3262;DHT22;1643;47.746;9.000;2023-03-12T13:22:42;10.90;99.90
3262;DHT22;1643;47.746;9.000;2023-03-12T13:28:36;11.10;99.90
3262;DHT22;1643;47.746;9.000;2023-03-12T13:33:47;11.70;99.90
3262;DHT22;1643;47.746;9.000;2023-03-12T13:38:57;12.30;99.90
3262;DHT22;1643;47.746;9.000;2023-03-12T13:49:40;12.10;99.90
3262;DHT22;1643;47.746;9.000;2023-03-12T13:54:45;11.90;99.90
3262;DHT22;1643;47.746;9.000;2023-03-12T13:57:38;12.10;99.90
3262;DHT22;1643;47.746;9.000;2023-03-12T14:02:48;12.10;99.90
3262;DHT22;1643;47.746;9.000;2023-03-12T14:05:16;12.50;99.90
3262;DHT22;1643;47.746;9.000;2023-03-12T14:07:55;12.60;99.90
3262;DHT22;1643;47.746;9.000;2023-03-12T14:13:12;13.10;99.90
3262;DHT22;1643;47.746;9.000;2023-03-12T14:15:43;13.30;99.90
3262;DHT22;1643;47.746;9.000;2023-03-12T14:18:21;13.40;99.90
3262;DHT22;1643;47.746;9.000;2023-03-12T14:21:14;13.40;99.90
3262;DHT22;1643;47.746;9.000;2023-03-12T14:23:45;13.50;99.90
3262;DHT22;1643;47.746;9.000;2023-03-12T14:26:20;13.60;99.90
3262;DHT22;1643;47.746;9.000;2023-03-12T14:28:57;13.50;99.90
3262;DHT22;1643;47.746;9.000;2023-03-12T14:31:25;13.30;99.90
3262;DHT22;1643;47.746;9.000;2023-03-12T14:33:59;13.60;99.90
3262;DHT22;1643;47.746;9.000;2023-03-12T14:36:35;13.50;99.90
3262;DHT22;1643;47.746;9.000;2023-03-12T14:39:41;13.70;99.90
3262;DHT22;1643;47.746;9.000;2023-03-12T14:42:08;13.70;99.90
3262;DHT22;1643;47.746;9.000;2023-03-12T14:44:37;13.90;99.90
3262;DHT22;1643;47.746;9.000;2023-03-12T14:47:06;13.90;99.90
3262;DHT22;1643;47.746;9.000;2023-03-12T14:49:43;13.70;99.90
3262;DHT22;1643;47.746;9.000;2023-03-12T14:52:24;13.80;99.90
3262;DHT22;1643;47.746;9.000;2023-03-12T14:55:02;13.80;99.90
3262;DHT22;1643;47.746;9.000;2023-03-12T14:57:29;13.80;99.90
3262;DHT22;1643;47.746;9.000;2023-03-12T14:59:56;13.70;99.90
3262;DHT22;1643;47.746;9.000;2023-03-12T15:02:23;13.80;99.90
3262;DHT22;1643;47.746;9.000;2023-03-12T15:04:51;14.10;99.90
3262;DHT22;1643;47.746;9.000;2023-03-12T15:07:30;14.20;99.90
3262;DHT22;1643;47.746;9.000;2023-03-12T15:09:57;14.20;99.90
3262;DHT22;1643;47.746;9.000;2023-03-12T15:12:25;14.20;99.90
3262;DHT22;1643;47.746;9.000;2023-03-12T15:14:59;14.20;99.90
3262;DHT22;1643;47.746;9.000;2023-03-12T15:17:28;14.10;99.90
3262;DHT22;1643;47.746;9.000;2023-03-12T15:19:54;14.20;99.90
3262;DHT22;1643;47.746;9.000;2023-03-12T15:22:23;14.20;99.90
3262;DHT22;1643;47.746;9.000;2023-03-12T15:24:50;14.20;99.90
3262;DHT22;1643;47.746;9.000;2023-03-12T15:27:20;14.20;99.90
3262;DHT22;1643;47.746;9.000;2023-03-12T15:29:46;14.20;99.90
3262;DHT22;1643;47.746;9.000;2023-03-12T15:32:16;14.30;99.90
3262;DHT22;1643;47.746;9.000;2023-03-12T15:34:44;14.40;99.90
3262;DHT22;1643;47.746;9.000;2023-03-12T15:37:24;14.40;99.90
3262;DHT22;1643;47.746;9.000;2023-03-12T15:40:21;14.50;99.90
3262;DHT22;1643;47.746;9.000;2023-03-12T15:42:48;14.20;99.50
3262;DHT22;1643;47.746;9.000;2023-03-12T15:47:46;14.10;99.90
3262;DHT22;1643;47.746;9.000;2023-03-12T15:50:18;14.20;99.90
3262;DHT22;1643;47.746;9.000;2023-03-12T15:55:55;13.80;99.90
3262;DHT22;1643;47.746;9.000;2023-03-12T16:00:54;13.40;99.90
3262;DHT22;1643;47.746;9.000;2023-03-12T16:03:30;13.10;99.90
3262;DHT22;1643;47.746;9.000;2023-03-12T16:05:55;13.10;99.90
3262;DHT22;1643;47.746;9.000;2023-03-12T16:08:34;12.90;99.90
3262;DHT22;1643;47.746;9.000;2023-03-12T16:11:02;12.80;99.90
3262;DHT22;1643;47.746;9.000;2023-03-12T16:13:29;12.80;99.90
3262;DHT22;1643;47.746;9.000;2023-03-12T16:15:57;12.70;99.90
3262;DHT22;1643;47.746;9.000;2023-03-12T16:18:23;12.70;99.90
3262;DHT22;1643;47.746;9.000;2023-03-12T16:20:50;12.70;99.90
3262;DHT22;1643;47.746;9.000;2023-03-12T16:23:16;12.60;99.90
3262;DHT22;1643;47.746;9.000;2023-03-12T16:25:45;12.60;99.90
3262;DHT22;1643;47.746;9.000;2023-03-12T16:28:14;12.50;99.90
3262;DHT22;1643;47.746;9.000;2023-03-12T16:30:40;12.50;99.90
3262;DHT22;1643;47.746;9.000;2023-03-12T16:33:06;12.40;99.90
3262;DHT22;1643;47.746;9.000;2023-03-12T16:35:32;12.40;99.90
3262;DHT22;1643;47.746;9.000;2023-03-12T16:37:58;12.40;99.90
3262;DHT22;1643;47.746;9.000;2023-03-12T16:40:26;12.40;99.90
3262;DHT22;1643;47.746;9.000;2023-03-12T16:42:53;12.30;99.90
3262;DHT22;1643;47.746;9.000;2023-03-12T16:45:19;12.20;99.90
3262;DHT22;1643;47.746;9.000;2023-03-12T16:47:57;12.20;99.90
3262;DHT22;1643;47.746;9.000;2023-03-12T16:50:23;12.20;99.90
3262;DHT22;1643;47.746;9.000;2023-03-12T16:52:49;12.10;99.90
3262;DHT22;1643;47.746;9.000;2023-03-12T16:55:19;12.10;99.90
3262;DHT22;1643;47.746;9.000;2023-03-12T16:57:51;12.10;99.90
3262;DHT22;1643;47.746;9.000;2023-03-12T17:00:37;12.20;99.90
3262;DHT22;1643;47.746;9.000;2023-03-12T17:03:04;12.10;99.90
3262;DHT22;1643;47.746;9.000;2023-03-12T17:05:31;12.10;99.90
3262;DHT22;1643;47.746;9.000;2023-03-12T17:07:57;12.10;99.90
3262;DHT22;1643;47.746;9.000;2023-03-12T17:10:24;12.00;99.90
3262;DHT22;1643;47.746;9.000;2023-03-12T17:12:50;12.00;99.90
3262;DHT22;1643;47.746;9.000;2023-03-12T17:15:27;12.00;99.90
3262;DHT22;1643;47.746;9.000;2023-03-12T17:17:55;11.90;99.90
3262;DHT22;1643;47.746;9.000;2023-03-12T17:20:22;11.90;99.90
3262;DHT22;1643;47.746;9.000;2023-03-12T17:22:48;11.90;99.90
3262;DHT22;1643;47.746;9.000;2023-03-12T17:25:29;11.90;99.90
3262;DHT22;1643;47.746;9.000;2023-03-12T17:27:55;11.80;99.90
3262;DHT22;1643;47.746;9.000;2023-03-12T17:30:22;11.80;99.90
3262;DHT22;1643;47.746;9.000;2023-03-12T17:32:48;11.90;99.90
3262;DHT22;1643;47.746;9.000;2023-03-12T17:35:14;11.80;99.90
3262;DHT22;1643;47.746;9.000;2023-03-12T17:37:40;11.90;99.90
3262;DHT22;1643;47.746;9.000;2023-03-12T17:40:06;11.80;99.90
3262;DHT22;1643;47.746;9.000;2023-03-12T17:42:33;11.80;99.90
3262;DHT22;1643;47.746;9.000;2023-03-12T17:44:59;11.80;99.90
3262;DHT22;1643;47.746;9.000;2023-03-12T17:47:25;11.80;99.90
3262;DHT22;1643;47.746;9.000;2023-03-12T17:49:51;11.70;99.90
3262;DHT22;1643;47.746;9.000;2023-03-12T17:52:17;11.70;99.90
3262;DHT22;1643;47.746;9.000;2023-03-12T17:54:42;11.60;99.90
3262;DHT22;1643;47.746;9.000;2023-03-12T17:57:08;11.70;99.90
3262;DHT22;1643;47.746;9.000;2023-03-12T17:59:33;11.60;99.90
3262;DHT22;1643;47.746;9.000;2023-03-12T18:01:59;11.60;99.90
3262;DHT22;1643;47.746;9.000;2023-03-12T18:04:24;11.70;99.90
3262;DHT22;1643;47.746;9.000;2023-03-12T18:06:50;11.70;99.90
3262;DHT22;1643;47.746;9.000;2023-03-12T18:09:16;11.70;99.90
3262;DHT22;1643;47.746;9.000;2023-03-12T18:11:42;11.70;99.90
3262;DHT22;1643;47.746;9.000;2023-03-12T18:14:07;11.70;99.90
3262;DHT22;1643;47.746;9.000;2023-03-12T18:16:33;11.70;99.90
3262;DHT22;1643;47.746;9.000;2023-03-12T18:18:59;11.70;99.90